Terminal Aerodrome Forecast
Issued by NWS

Home | Current Version | Previous Version | Text Only | Print | Product List | Glossary On
Versions: 1 2 3 4 5 6 7 8 9 10 11 12 13 14 15 16 17 18 19 20 21
000
FTAK31 PAJN 301320 AAB
TAFAPG
TAF AMD
PAPG 301320Z 3013/3112 VRB04KT P6SM VCSH FEW005 OVC025
      TEMPO 3013/3016 5SM -RA BR BKN004 BKN025 OVC045
     FM301800 07003KT 5SM -RA FEW004 BKN020 OVC050
     FM310600 09002KT 4SM -RA BR BKN008 OVC025
      AMD LTD TO CLD VIS AND WIND 3012/3015=

USA.gov is the U.S. government's official web portal to all federal, state and local government web resources and services.